Time;durP1;ratioP1;P1;durP2;ratioP2;P2;SDS_P1;SDS_P2;PMS_P1;PMS_P2;Temp;Humidity;BMP_temperature;BMP_pressure;BME280_temperature;BME280_humidity;BME280_pressure;Samples;Min_cycle;Max_cycle;Signal;HPM_P1;HPM_P2
2021/04/13 00:01:10;;;;;;;14.95;12.30;;;;;;;5.31;69.39;101384.63;5095627;28;20481;-63
2021/04/13 00:04:05;;;;;;;12.45;11.13;;;;;;;5.30;69.80;101382.84;5095383;28;20036;-63
2021/04/13 00:06:54;;;;;;;14.77;11.73;;;;;;;5.30;69.47;101388.00;5103525;28;20168;-63
2021/04/13 00:09:25;;;;;;;14.77;12.30;;;;;;;5.27;69.38;101375.84;5095255;28;20063;-63
2021/04/13 00:12:08;;;;;;;13.82;12.18;;;;;;;5.29;70.00;101383.66;5095577;28;20097;-63
2021/04/13 00:14:41;;;;;;;13.77;12.20;;;;;;;5.27;69.35;101380.09;5116664;28;20119;-63
2021/04/13 00:17:14;;;;;;;17.13;12.63;;;;;;;5.28;69.77;101381.88;5099132;28;20039;-63
2021/04/13 00:21:59;;;;;;;14.10;11.77;;;;;;;5.24;69.87;101385.94;5067777;28;20149;-63
2021/04/13 00:24:38;;;;;;;16.55;12.10;;;;;;;5.25;69.54;101381.69;5067407;28;20060;-63
2021/04/13 00:27:12;;;;;;;16.55;12.27;;;;;;;5.25;69.58;101384.25;5067050;28;20037;-63
2021/04/13 00:29:43;;;;;;;13.68;11.07;;;;;;;5.24;69.81;101385.94;5067170;28;20047;-63
2021/04/13 00:32:23;;;;;;;24.85;11.63;;;;;;;5.24;69.42;101387.63;5032523;28;20079;-63
2021/04/13 00:35:16;;;;;;;15.30;12.32;;;;;;;5.23;69.25;101383.28;5033526;28;20075;-63
2021/04/13 00:37:45;;;;;;;13.77;11.68;;;;;;;5.23;69.67;101384.19;5032832;28;20383;-61
2021/04/13 00:40:31;;;;;;;13.68;11.70;;;;;;;5.22;69.70;101389.22;5066579;28;20564;-63
2021/04/13 00:43:03;;;;;;;14.95;11.88;;;;;;;5.22;69.97;101390.13;5033256;28;20048;-63
2021/04/13 00:45:31;;;;;;;14.85;12.07;;;;;;;5.22;69.21;101384.06;5032649;28;20033;-63
2021/04/13 00:48:01;;;;;;;16.52;11.95;;;;;;;5.22;69.76;101381.50;5032530;28;20112;-63
2021/04/13 00:50:36;;;;;;;12.73;11.38;;;;;;;5.22;69.80;101382.41;5049024;28;20047;-63
2021/04/13 00:53:11;;;;;;;15.65;13.10;;;;;;;5.21;69.40;101387.47;5032179;28;20036;-63
2021/04/13 00:56:07;;;;;;;14.70;11.55;;;;;;;5.21;69.45;101382.31;5032768;28;20044;-63
2021/04/13 00:58:39;;;;;;;14.90;12.68;;;;;;;5.22;69.51;101384.06;5049099;28;20048;-63
2021/04/13 01:01:33;;;;;;;15.23;12.25;;;;;;;5.21;69.03;101390.03;5032256;28;20040;-63
2021/04/13 01:04:12;;;;;;;16.08;12.68;;;;;;;5.20;69.93;101391.69;5032788;28;20037;-63
2021/04/13 01:06:56;;;;;;;14.75;12.35;;;;;;;5.18;69.69;101385.56;5032198;28;20055;-63
2021/04/13 01:09:28;;;;;;;14.95;12.60;;;;;;;5.17;69.78;101376.09;5066951;28;20078;-62
2021/04/13 01:12:08;;;;;;;14.68;11.98;;;;;;;5.16;69.59;101377.78;5048470;28;20032;-62
2021/04/13 01:14:39;;;;;;;16.05;12.50;;;;;;;5.16;69.91;101385.50;5067052;28;20044;-63
2021/04/13 01:17:08;;;;;;;14.63;12.45;;;;;;;5.15;69.72;101381.16;5031815;28;20070;-63
2021/04/13 01:19:58;;;;;;;14.48;12.60;;;;;;;5.16;69.44;101389.72;5031755;28;20074;-63
2021/04/13 01:23:33;;;;;;;13.73;11.77;;;;;;;5.15;69.35;101391.44;5032155;28;20492;-63
2021/04/13 01:25:48;;;;;;;14.13;11.90;;;;;;;5.15;69.50;101391.44;5052838;28;20041;-63
2021/04/13 01:28:16;;;;;;;14.25;11.52;;;;;;;5.14;69.76;101389.66;5048351;28;20039;-61
2021/04/13 01:30:50;;;;;;;15.00;12.35;;;;;;;5.13;69.51;101390.44;5048279;28;20082;-63
2021/04/13 01:33:57;;;;;;;14.77;11.95;;;;;;;5.13;69.59;101387.00;5018770;28;20495;-63
2021/04/13 01:36:31;;;;;;;20.17;12.48;;;;;;;5.13;70.16;101398.16;5034433;28;20045;-63
2021/04/13 01:39:12;;;;;;;14.05;11.35;;;;;;;5.12;69.79;101393.81;5035277;28;20029;-63
2021/04/13 01:42:00;;;;;;;13.35;11.40;;;;;;;5.11;69.60;101392.03;5035441;28;20044;-63
2021/04/13 01:44:57;;;;;;;17.63;12.68;;;;;;;5.09;69.61;101393.63;5018248;28;20033;-63
2021/04/13 01:47:28;;;;;;;16.60;12.77;;;;;;;5.10;69.64;101395.41;5018283;28;20120;-63
2021/04/13 01:50:08;;;;;;;13.52;11.70;;;;;;;5.09;69.98;101398.75;5018948;28;20029;-62
2021/04/13 01:52:44;;;;;;;15.50;12.77;;;;;;;5.09;69.79;101388.47;5052666;28;20079;-63
2021/04/13 01:55:24;;;;;;;16.95;12.65;;;;;;;5.09;69.55;101392.75;5035048;28;20060;-63
2021/04/13 01:58:21;;;;;;;13.52;10.98;;;;;;;5.07;69.56;101392.63;5018652;28;20037;-64
2021/04/13 02:00:58;;;;;;;16.05;12.45;;;;;;;5.07;69.42;101391.78;5035124;28;20041;-63
2021/04/13 02:03:36;;;;;;;16.50;11.40;;;;;;;5.06;69.73;101398.56;5052332;28;20041;-63
2021/04/13 02:06:22;;;;;;;14.20;11.18;;;;;;;5.07;69.95;101394.34;5034758;28;20029;-63
2021/04/13 02:09:08;;;;;;;14.07;11.55;;;;;;;5.05;69.51;101399.41;5034562;28;20059;-63
2021/04/13 02:11:46;;;;;;;15.50;12.25;;;;;;;5.06;70.08;101402.84;5052720;28;20499;-63
2021/04/13 02:14:21;;;;;;;14.57;12.18;;;;;;;5.05;69.65;101401.06;5034463;28;20563;-63
2021/04/13 02:16:58;;;;;;;14.32;11.98;;;;;;;5.03;69.77;101403.56;5051745;28;20037;-63
2021/04/13 02:19:30;;;;;;;15.02;12.50;;;;;;;5.03;70.14;101408.69;5034840;28;20041;-63
2021/04/13 02:22:07;;;;;;;13.13;11.13;;;;;;;5.02;70.29;101402.66;5052208;28;20036;-63
2021/04/13 02:24:39;;;;;;;14.20;11.10;;;;;;;5.02;69.71;101407.78;5051992;28;20041;-64
2021/04/13 02:27:17;;;;;;;14.93;10.95;;;;;;;5.02;69.26;101404.34;5051600;28;20032;-63
2021/04/13 02:30:06;;;;;;;16.95;11.05;;;;;;;5.01;70.03;101405.13;5017695;28;20410;-63
2021/04/13 02:32:47;;;;;;;14.13;12.63;;;;;;;5.00;69.67;101405.94;5017835;28;20491;-63
2021/04/13 02:35:24;;;;;;;13.05;10.77;;;;;;;5.00;69.99;101403.38;5034288;28;20057;-63
2021/04/13 02:37:58;;;;;;;13.82;11.55;;;;;;;4.99;69.94;101401.59;5017626;28;20064;-63
2021/04/13 02:40:52;;;;;;;13.60;12.02;;;;;;;4.97;69.29;101403.16;5034548;28;20120;-63
2021/04/13 02:43:32;;;;;;;13.48;11.68;;;;;;;4.99;69.30;101401.59;5016590;28;20037;-63
2021/04/13 02:46:09;;;;;;;14.77;11.88;;;;;;;4.96;70.07;101402.31;5033797;28;20043;-63
2021/04/13 02:48:45;;;;;;;12.68;10.88;;;;;;;4.96;69.98;101402.31;5052169;28;20476;-63
2021/04/13 02:51:15;;;;;;;12.30;11.00;;;;;;;4.97;69.93;101403.16;5017214;28;20037;-63
2021/04/13 02:53:48;;;;;;;13.98;11.48;;;;;;;4.94;69.73;101409.03;5017230;28;20598;-63
2021/04/13 02:56:21;;;;;;;13.88;11.27;;;;;;;4.95;69.69;101402.19;5017469;28;20132;-63
2021/04/13 02:59:59;;;;;;;13.00;11.38;;;;;;;4.94;70.24;101409.03;5090924;27;20359;-63
2021/04/13 03:02:56;;;;;;;13.07;10.40;;;;;;;4.92;70.37;101408.03;5090811;28;20028;-63
2021/04/13 03:05:31;;;;;;;12.75;10.18;;;;;;;4.93;69.52;101411.47;5091274;28;20036;-63
2021/04/13 03:08:06;;;;;;;16.55;11.15;;;;;;;4.92;70.00;101408.03;5055915;28;20036;-63
2021/04/13 03:10:42;;;;;;;14.27;11.77;;;;;;;4.92;69.86;101412.28;5055975;28;20047;-63
2021/04/13 03:13:32;;;;;;;14.02;11.32;;;;;;;4.90;70.53;101414.75;5073023;28;20058;-63
2021/04/13 03:16:01;;;;;;;15.18;12.05;;;;;;;4.88;70.29;101406.97;5073781;28;20036;-63
2021/04/13 03:18:52;;;;;;;13.10;11.27;;;;;;;4.89;69.67;101412.97;5090647;28;20041;-63
2021/04/13 03:21:32;;;;;;;13.55;11.65;;;;;;;4.89;70.15;101412.97;5055738;28;20115;-63
2021/04/13 03:24:00;;;;;;;14.07;10.68;;;;;;;4.88;69.74;101408.63;5091230;28;20044;-63
2021/04/13 03:26:36;;;;;;;14.50;11.35;;;;;;;4.90;70.12;101411.31;5090878;28;20085;-62
2021/04/13 03:29:24;;;;;;;13.10;10.35;;;;;;;4.88;69.89;101414.69;5055770;28;20457;-63
2021/04/13 03:31:52;;;;;;;11.55;9.98;;;;;;;4.89;70.13;101418.13;5072063;28;20029;-63
2021/04/13 03:34:18;;;;;;;14.45;10.05;;;;;;;4.90;70.15;101413.88;5055678;28;20032;-63
2021/04/13 03:36:46;;;;;;;13.10;10.70;;;;;;;4.88;70.20;101422.38;5055778;28;20046;-64
2021/04/13 03:39:36;;;;;;;11.35;10.15;;;;;;;4.86;70.02;101408.56;5072207;28;20040;-63
2021/04/13 03:42:04;;;;;;;13.85;11.27;;;;;;;4.87;69.66;101409.44;5090343;28;20036;-63
2021/04/13 03:44:30;;;;;;;12.50;10.40;;;;;;;4.86;69.65;101407.66;5071556;28;20051;-63
2021/04/13 03:46:56;;;;;;;16.58;11.00;;;;;;;4.86;69.98;101413.69;5071934;28;20032;-61
2021/04/13 03:49:29;;;;;;;14.38;11.88;;;;;;;4.85;69.47;101411.00;5055349;28;20041;-63
2021/04/13 03:52:32;;;;;;;13.60;10.32;;;;;;;4.85;69.89;101408.44;5055368;28;20094;-61
2021/04/13 03:55:20;;;;;;;13.43;11.63;;;;;;;4.83;69.87;101408.38;5089403;28;20403;-63
2021/04/13 03:57:54;;;;;;;12.73;10.55;;;;;;;4.84;69.86;101422.09;5054715;28;20052;-61
2021/04/13 04:00:24;;;;;;;13.35;10.70;;;;;;;4.82;70.13;101414.28;5071736;28;20068;-63
2021/04/13 04:05:13;;;;;;;13.77;10.65;;;;;;;4.82;70.25;101411.72;5123134;27;20368;-63
2021/04/13 04:08:14;;;;;;;13.23;10.88;;;;;;;4.81;69.95;101407.38;5090033;28;20071;-63
2021/04/13 04:10:41;;;;;;;13.15;10.43;;;;;;;4.80;70.22;101410.75;5088795;28;20059;-62
2021/04/13 04:13:20;;;;;;;12.10;10.23;;;;;;;4.79;69.75;101411.53;5072797;28;20029;-63
2021/04/13 04:15:50;;;;;;;13.77;10.70;;;;;;;4.81;69.87;101416.78;5089726;28;20032;-62
2021/04/13 04:18:30;;;;;;;13.18;10.88;;;;;;;4.78;70.35;101420.03;5072381;28;20037;-62
2021/04/13 04:20:56;;;;;;;12.93;10.32;;;;;;;4.80;70.26;101420.13;5089644;28;20395;-63
2021/04/13 04:23:33;;;;;;;11.95;9.73;;;;;;;4.78;70.33;101422.59;5090651;28;20036;-62
2021/04/13 04:26:06;;;;;;;14.80;12.23;;;;;;;4.78;70.38;101427.72;5072701;28;20037;-64
2021/04/13 04:28:40;;;;;;;14.32;11.32;;;;;;;4.77;69.92;101431.09;5089484;28;20037;-63
2021/04/13 04:31:35;;;;;;;13.98;11.32;;;;;;;4.76;69.92;101426.75;5072382;28;20036;-63
2021/04/13 04:34:15;;;;;;;14.13;10.80;;;;;;;4.76;69.87;101439.59;5070113;28;20537;-63
2021/04/13 04:36:52;;;;;;;13.88;11.25;;;;;;;4.76;70.62;101439.59;5089974;28;20385;-62
2021/04/13 04:39:36;;;;;;;16.08;11.52;;;;;;;4.75;69.83;101442.06;5106836;28;20043;-63
2021/04/13 04:42:29;;;;;;;13.82;10.30;;;;;;;4.75;70.40;101440.38;5089190;28;20472;-63
2021/04/13 04:45:10;;;;;;;12.52;10.05;;;;;;;4.73;70.17;101445.44;5069682;28;20048;-63
2021/04/13 04:47:38;;;;;;;13.32;10.82;;;;;;;4.74;70.23;101448.91;5089278;28;20035;-62
2021/04/13 04:50:10;;;;;;;16.00;11.10;;;;;;;4.75;69.99;101450.66;5106237;28;20123;-63
2021/04/13 04:52:36;;;;;;;14.63;10.32;;;;;;;4.75;70.68;101452.34;5088714;28;20488;-63
2021/04/13 04:55:01;;;;;;;14.77;10.80;;;;;;;4.73;70.02;101454.84;5089935;28;20060;-63
2021/04/13 04:57:27;;;;;;;13.75;11.38;;;;;;;4.73;70.10;101458.28;5105775;28;20043;-63
2021/04/13 04:59:55;;;;;;;14.60;11.00;;;;;;;4.72;69.83;101464.22;5088895;28;20107;-63
2021/04/13 05:02:21;;;;;;;14.57;10.75;;;;;;;4.73;70.02;101459.97;5090111;28;20060;-63
2021/04/13 05:04:48;;;;;;;14.63;10.88;;;;;;;4.72;70.37;101464.22;5090156;28;20048;-63
2021/04/13 05:07:16;;;;;;;16.45;13.20;;;;;;;4.73;70.60;101465.97;5088856;28;20036;-63
2021/04/13 05:09:47;;;;;;;14.77;12.63;;;;;;;4.72;70.52;101468.47;5089484;28;20120;-63
2021/04/13 05:12:18;;;;;;;16.13;11.32;;;;;;;4.72;70.05;101476.19;5105250;28;20031;-63
2021/04/13 05:14:46;;;;;;;17.60;12.13;;;;;;;4.71;69.46;101476.97;5085095;28;20036;-63
2021/04/13 05:17:20;;;;;;;17.67;13.02;;;;;;;4.71;70.20;101470.13;5076590;28;20385;-63
2021/04/13 05:19:48;;;;;;;17.05;12.40;;;;;;;4.71;69.54;101479.53;5092162;28;20098;-63
2021/04/13 05:22:17;;;;;;;15.27;12.20;;;;;;;4.70;70.24;101485.47;5074920;28;20032;-63
2021/04/13 05:24:48;;;;;;;17.77;12.07;;;;;;;4.70;70.23;101486.34;5075889;28;20033;-63
2021/04/13 05:27:16;;;;;;;17.80;12.63;;;;;;;4.69;70.15;101488.81;5092288;28;20033;-64
2021/04/13 05:29:46;;;;;;;16.42;11.95;;;;;;;4.68;70.24;101492.19;5075620;28;20090;-63
2021/04/13 05:32:17;;;;;;;17.60;13.43;;;;;;;4.69;70.45;101493.97;5091840;28;20029;-63
2021/04/13 05:34:46;;;;;;;18.75;14.05;;;;;;;4.68;70.16;101495.63;5108620;28;20054;-64
2021/04/13 05:37:14;;;;;;;20.00;12.77;;;;;;;4.67;70.39;101501.53;5075599;28;20052;-63
2021/04/13 05:39:43;;;;;;;17.77;12.95;;;;;;;4.66;70.38;101502.38;5091431;28;20036;-63
2021/04/13 05:42:30;;;;;;;20.67;14.32;;;;;;;4.66;70.46;101507.50;5074238;28;20518;-63
2021/04/13 05:44:57;;;;;;;19.92;14.82;;;;;;;4.65;69.82;101502.25;5075553;28;20037;-63
2021/04/13 05:47:29;;;;;;;19.08;14.43;;;;;;;4.64;70.27;101511.66;5091441;28;20039;-63
2021/04/13 05:49:54;;;;;;;18.90;13.52;;;;;;;4.65;69.65;101513.44;5090974;28;20033;-63
2021/04/13 05:52:20;;;;;;;21.60;15.77;;;;;;;4.65;70.49;101521.13;5075827;28;20037;-63
2021/04/13 05:54:45;;;;;;;17.98;13.85;;;;;;;4.63;69.99;101522.72;5074188;28;20040;-63
2021/04/13 05:57:15;;;;;;;19.63;14.95;;;;;;;4.64;70.08;101531.28;5074350;28;20111;-63
2021/04/13 05:59:42;;;;;;;21.30;15.45;;;;;;;4.63;70.41;101521.81;5057650;28;20036;-63
2021/04/13 06:02:13;;;;;;;23.15;16.00;;;;;;;4.62;70.94;101532.88;5057703;28;20163;-63
2021/04/13 06:04:41;;;;;;;22.80;16.60;;;;;;;4.63;70.48;101538.13;5090452;28;20044;-63
2021/04/13 06:07:12;;;;;;;27.60;16.23;;;;;;;4.61;70.22;101534.56;5091176;28;20032;-63
2021/04/13 06:09:39;;;;;;;18.27;14.38;;;;;;;4.61;69.88;101536.22;5091381;28;20119;-63
2021/04/13 06:12:08;;;;;;;22.10;16.15;;;;;;;4.60;70.09;101530.22;5075155;28;20044;-63
2021/04/13 06:14:36;;;;;;;22.65;16.45;;;;;;;4.59;70.10;101538.69;5090787;28;20491;-63
2021/04/13 06:17:04;;;;;;;23.95;16.08;;;;;;;4.60;69.66;101539.56;5057079;28;20131;-63
2021/04/13 06:19:32;;;;;;;21.15;15.77;;;;;;;4.58;69.89;101542.06;5057334;28;20131;-63
2021/04/13 06:21:58;;;;;;;21.83;16.48;;;;;;;4.60;70.10;101542.16;5107521;28;20449;-63
2021/04/13 06:24:26;;;;;;;21.92;17.02;;;;;;;4.61;69.98;101546.50;5073592;28;20460;-63
2021/04/13 06:26:57;;;;;;;20.67;16.10;;;;;;;4.60;70.43;101544.72;5073965;28;20068;-63
2021/04/13 06:29:25;;;;;;;20.92;16.23;;;;;;;4.59;70.46;101548.97;5090597;28;20438;-63
2021/04/13 06:32:10;;;;;;;21.77;17.13;;;;;;;4.56;70.01;101554.81;5152906;27;20367;-63
2021/04/13 06:34:36;;;;;;;22.27;16.52;;;;;;;4.58;70.51;101549.75;5116922;27;20066;-63
2021/04/13 06:37:04;;;;;;;21.60;16.77;;;;;;;4.57;70.68;101566.88;5152543;27;20069;-63
2021/04/13 06:39:34;;;;;;;19.42;15.48;;;;;;;4.56;69.84;101559.94;5134333;27;20148;-63
2021/04/13 06:42:21;;;;;;;22.70;16.50;;;;;;;4.54;70.45;101556.38;5116432;27;20439;-63
2021/04/13 06:45:12;;;;;;;22.33;17.35;;;;;;;4.54;70.20;101558.06;5117054;27;20057;-64
2021/04/13 06:48:06;;;;;;;22.45;16.75;;;;;;;4.53;70.34;101562.31;5152168;27;20045;-63
2021/04/13 06:50:32;;;;;;;;;;;;;;;4.51;70.35;101561.31;5078510;27;20094;-63
2021/04/13 06:53:39;;;;;;;26.05;16.55;;;;;;;4.51;69.92;101568.16;5168662;27;20010;-63
2021/04/13 06:56:32;;;;;;;24.15;17.73;;;;;;;4.50;70.42;101564.69;5147533;27;20058;-64
2021/04/13 06:59:40;;;;;;;25.95;16.20;;;;;;;4.49;69.73;101570.59;5115566;27;20039;-63
2021/04/13 07:02:31;;;;;;;24.63;17.77;;;;;;;4.50;70.35;101568.94;5151313;27;20088;-63
2021/04/13 07:05:13;;;;;;;25.45;17.35;;;;;;;4.50;70.29;101574.06;5133649;27;20118;-63
2021/04/13 07:07:51;;;;;;;22.90;16.95;;;;;;;4.50;70.41;101577.50;5152141;27;20035;-64
2021/04/13 07:10:31;;;;;;;23.08;15.80;;;;;;;4.50;69.94;101574.06;5116383;27;20037;-63
2021/04/13 07:13:11;;;;;;;20.27;15.48;;;;;;;4.48;69.77;101576.53;5133390;27;20081;-63
2021/04/13 07:16:02;;;;;;;21.73;16.35;;;;;;;4.49;69.73;101577.44;5116128;27;20035;-62
2021/04/13 07:19:01;;;;;;;24.38;16.23;;;;;;;4.48;70.40;101576.53;5152091;27;20039;-63
2021/04/13 07:21:48;;;;;;;20.48;15.23;;;;;;;4.46;70.17;101572.97;5094418;27;20047;-63
2021/04/13 07:24:24;;;;;;;20.05;15.27;;;;;;;4.48;70.51;101573.94;5151810;27;20057;-64
2021/04/13 07:27:03;;;;;;;20.00;16.02;;;;;;;4.48;70.21;101578.22;5116223;27;20075;-63
2021/04/13 07:29:47;;;;;;;25.20;16.67;;;;;;;4.48;70.41;101578.22;5116434;27;20043;-63
2021/04/13 07:32:20;;;;;;;20.05;15.43;;;;;;;4.48;70.08;101583.34;5132642;27;20035;-64
2021/04/13 07:34:57;;;;;;;23.05;17.25;;;;;;;4.47;69.91;101584.13;5116215;27;20126;-63
2021/04/13 07:37:32;;;;;;;21.05;15.32;;;;;;;4.48;69.77;101586.78;5150717;27;20066;-63
2021/04/13 07:40:09;;;;;;;19.90;15.35;;;;;;;4.48;70.28;101588.47;5151289;27;20098;-63
2021/04/13 07:42:37;;;;;;;24.48;15.75;;;;;;;4.48;70.20;101586.78;5124379;27;20045;-63
2021/04/13 07:45:23;;;;;;;26.48;15.18;;;;;;;4.48;70.73;101583.34;5118958;27;20031;-64
2021/04/13 07:48:07;;;;;;;19.15;13.15;;;;;;;4.47;70.50;101585.00;5136530;27;20191;-64
2021/04/13 07:51:04;;;;;;;22.30;14.60;;;;;;;4.46;69.64;101588.38;5119187;27;20118;-64
2021/04/13 07:54:07;;;;;;;17.55;14.02;;;;;;;4.47;70.04;101595.28;5102350;27;20031;-63
2021/04/13 07:56:47;;;;;;;18.95;13.57;;;;;;;4.46;70.53;101593.50;5137049;27;20046;-63
2021/04/13 07:59:39;;;;;;;19.67;13.60;;;;;;;4.45;69.96;101584.03;5101528;27;20042;-63
2021/04/13 08:02:05;;;;;;;17.30;12.95;;;;;;;4.47;69.58;101594.41;5102175;27;20122;-63
2021/04/13 08:04:36;;;;;;;18.17;13.73;;;;;;;4.45;70.13;101586.59;5118575;27;20444;-63
2021/04/13 08:07:27;;;;;;;16.48;12.55;;;;;;;4.45;70.23;101588.28;5101845;27;20041;-63
2021/04/13 08:10:11;;;;;;;20.90;13.00;;;;;;;4.43;70.19;101601.03;5101475;27;20042;-63
2021/04/13 08:12:57;;;;;;;17.80;12.75;;;;;;;4.44;70.52;101591.63;5118509;27;20031;-63
2021/04/13 08:15:45;;;;;;;20.27;12.82;;;;;;;4.44;70.29;101591.63;5136848;27;20035;-63
2021/04/13 08:18:21;;;;;;;17.80;13.50;;;;;;;4.44;69.98;101591.63;5101399;27;20031;-64
2021/04/13 08:20:53;;;;;;;22.88;12.63;;;;;;;4.45;69.84;101588.28;5118681;27;20386;-64
2021/04/13 08:23:24;;;;;;;20.30;13.52;;;;;;;4.44;70.35;101601.91;5136777;27;20031;-63
2021/04/13 08:26:00;;;;;;;16.90;11.77;;;;;;;4.46;69.87;101595.19;5101199;27;20031;-63
2021/04/13 08:28:43;;;;;;;17.25;11.32;;;;;;;4.46;69.96;101595.19;5136427;27;20023;-63
2021/04/13 08:34:38;;;;;;;16.55;11.18;;;;;;;4.48;70.09;101597.06;5095530;28;20039;-63
2021/04/13 08:37:25;;;;;;;14.93;11.35;;;;;;;4.49;69.87;101597.97;5093729;28;20036;-63
2021/04/13 08:40:23;;;;;;;17.63;10.85;;;;;;;4.48;70.33;101606.47;5095847;28;20036;-63
2021/04/13 08:43:11;;;;;;;14.00;10.10;;;;;;;4.49;70.44;101600.53;5077255;28;20036;-63
2021/04/13 08:45:49;;;;;;;19.38;10.02;;;;;;;4.49;70.17;101598.84;5076919;28;20491;-63
2021/04/13 08:48:57;;;;;;;13.90;10.70;;;;;;;4.50;69.94;101602.31;5095585;28;20168;-63
2021/04/13 08:51:48;;;;;;;12.43;9.85;;;;;;;4.52;69.64;101593.91;5061829;28;20506;-63
2021/04/13 08:54:34;;;;;;;13.02;9.13;;;;;;;4.54;69.92;101601.72;5093203;28;20036;-63
2021/04/13 08:57:05;;;;;;;17.27;10.23;;;;;;;4.56;70.62;101605.28;5095404;28;20044;-63
2021/04/13 09:00:33;;;;;;;15.40;9.63;;;;;;;4.59;70.07;101599.47;5152591;27;20424;-62
2021/04/13 09:03:09;;;;;;;16.90;9.57;;;;;;;4.59;70.44;101600.34;5096857;28;20039;-64
2021/04/13 09:05:44;;;;;;;13.93;8.90;;;;;;;4.61;69.76;101609.03;5096942;28;20035;-63
2021/04/13 09:08:54;;;;;;;14.65;8.82;;;;;;;4.60;69.89;101596.97;5097408;28;20044;-64
2021/04/13 09:11:57;;;;;;;9.55;8.13;;;;;;;4.62;70.37;101605.69;5097078;28;20054;-64
2021/04/13 09:14:47;;;;;;;11.55;7.65;;;;;;;4.63;70.16;101607.47;5076466;28;20043;-63
2021/04/13 09:17:19;;;;;;;13.50;7.68;;;;;;;4.63;70.13;101604.91;5131854;28;20036;-63
2021/04/13 09:20:02;;;;;;;8.55;7.05;;;;;;;4.65;70.19;101605.88;5131658;28;20032;-64
2021/04/13 09:22:55;;;;;;;11.57;6.45;;;;;;;4.66;70.32;101612.81;5096468;28;20036;-64
2021/04/13 09:25:35;;;;;;;10.60;6.55;;;;;;;4.69;69.71;101602.69;5118897;28;20543;-64
2021/04/13 09:28:15;;;;;;;12.50;7.55;;;;;;;4.71;69.88;101598.56;5096489;28;20038;-64
2021/04/13 09:30:48;;;;;;;10.63;6.35;;;;;;;4.75;70.17;101606.47;5112991;28;20035;-64
2021/04/13 09:33:19;;;;;;;8.75;6.53;;;;;;;4.78;70.13;101606.69;5112952;28;20073;-64
2021/04/13 09:36:00;;;;;;;13.43;7.05;;;;;;;4.77;69.68;101603.19;5112959;28;20037;-64
2021/04/13 09:38:38;;;;;;;9.95;5.72;;;;;;;4.77;70.12;101602.31;5096304;28;20044;-64
2021/04/13 09:41:14;;;;;;;10.73;5.50;;;;;;;4.79;69.88;101605.88;5112914;28;20046;-64
2021/04/13 09:44:21;;;;;;;8.98;5.68;;;;;;;4.80;70.40;101599.97;5112654;28;20494;-64
2021/04/13 09:46:55;;;;;;;9.65;6.03;;;;;;;4.81;70.04;101606.88;5130157;28;20498;-64
2021/04/13 09:49:24;;;;;;;7.75;6.25;;;;;;;4.80;70.26;101599.97;5095923;28;20088;-64
2021/04/13 09:52:14;;;;;;;8.10;5.10;;;;;;;4.82;70.16;101603.53;5130610;28;20035;-64
2021/04/13 09:54:43;;;;;;;5.70;5.03;;;;;;;4.84;69.61;101601.91;5091540;28;20040;-64
2021/04/13 09:57:27;;;;;;;7.50;5.38;;;;;;;4.88;70.18;101598.75;5086964;28;20190;-64
2021/04/13 10:00:31;;;;;;;11.07;5.28;;;;;;;4.91;69.70;101596.38;5111257;28;20122;-64
2021/04/13 10:03:18;;;;;;;6.43;5.13;;;;;;;5.12;69.49;101589.16;5066072;28;20127;-63
2021/04/13 10:05:53;;;;;;;15.38;7.88;;;;;;;5.29;68.79;101591.88;5093798;28;20099;-62
2021/04/13 10:08:23;;;;;;;22.23;11.60;;;;;;;5.39;69.09;101583.94;5130757;28;20031;-63
2021/04/13 10:11:07;;;;;;;21.45;12.43;;;;;;;5.32;69.04;101592.97;5101965;28;20101;-64
2021/04/13 10:14:08;;;;;;;23.80;10.82;;;;;;;5.26;69.02;101589.13;5116468;28;20035;-64
2021/04/13 10:16:48;;;;;;;25.38;12.70;;;;;;;5.23;69.55;101582.13;5080613;28;20126;-64
2021/04/13 10:19:32;;;;;;;16.38;10.68;;;;;;;5.22;69.21;101582.00;5081179;28;20044;-64
2021/04/13 10:22:17;;;;;;;15.52;9.25;;;;;;;5.23;69.03;101569.25;5097648;28;20122;-64
2021/04/13 10:25:01;;;;;;;;;;;;;;;5.24;69.54;101580.41;5116575;28;20111;-64
2021/04/13 10:27:44;;;;;;;18.20;9.60;;;;;;;5.24;69.41;101576.19;5081310;28;19961;-64
2021/04/13 10:30:19;;;;;;;13.85;7.97;;;;;;;5.24;69.18;101575.28;5082250;28;20042;-64
2021/04/13 10:33:04;;;;;;;14.13;7.32;;;;;;;5.24;69.01;101571.03;5098643;28;20035;-64
2021/04/13 10:35:57;;;;;;;13.18;6.68;;;;;;;5.25;69.31;101565.09;5116589;28;20479;-64
2021/04/13 10:38:46;;;;;;;15.07;6.65;;;;;;;5.26;69.57;101565.97;5097977;28;20035;-64
2021/04/13 10:41:27;;;;;;;12.05;6.00;;;;;;;5.27;69.43;101563.53;5098153;28;20028;-64
2021/04/13 10:44:18;;;;;;;8.50;4.80;;;;;;;5.30;69.35;101565.38;5116226;28;20387;-64
2021/04/13 10:47:03;;;;;;;12.15;6.20;;;;;;;5.29;69.00;101559.38;5098394;28;20040;-64
2021/04/13 10:49:55;;;;;;;11.65;5.95;;;;;;;5.29;69.00;101555.88;5081616;28;20036;-64
2021/04/13 10:52:39;;;;;;;7.97;5.50;;;;;;;5.27;69.38;101547.19;5080919;28;20036;-64
2021/04/13 10:55:26;;;;;;;14.95;5.68;;;;;;;5.26;69.35;101550.56;5097334;28;20032;-64
2021/04/13 10:58:04;;;;;;;9.35;5.00;;;;;;;5.24;68.59;101552.13;5081198;28;20406;-64
2021/04/13 11:00:45;;;;;;;8.93;5.43;;;;;;;5.23;69.31;101550.34;5097774;28;20060;-64
2021/04/13 11:03:49;;;;;;;6.43;4.30;;;;;;;5.22;68.67;101552.06;5097378;28;20043;-65
2021/04/13 11:06:24;;;;;;;7.82;4.43;;;;;;;5.21;69.14;101551.97;5116198;28;20035;-64
2021/04/13 11:09:27;;;;;;;8.10;4.38;;;;;;;5.16;69.42;101549.09;5080389;28;20562;-64
2021/04/13 11:11:59;;;;;;;7.82;4.63;;;;;;;5.16;68.71;101547.44;5115396;28;20062;-64
2021/04/13 11:15:03;;;;;;;18.27;5.85;;;;;;;5.14;69.01;101549.00;5080975;28;20044;-64
2021/04/13 11:17:41;;;;;;;7.30;4.20;;;;;;;5.13;69.40;101548.94;5097465;28;20031;-65
2021/04/13 11:20:30;;;;;;;8.82;4.93;;;;;;;5.13;69.07;101547.22;5115581;28;20274;-64
2021/04/13 11:25:09;;;;;;;7.38;3.92;;;;;;;5.15;69.69;101545.66;5027587;28;20781;-62
2021/04/13 11:27:59;;;;;;;7.82;3.80;;;;;;;5.18;69.10;101544.94;4993680;28;20431;-64
2021/04/13 11:30:55;;;;;;;6.57;3.70;;;;;;;5.22;69.56;101535.72;5026949;28;20057;-64
2021/04/13 11:33:56;;;;;;;7.15;3.80;;;;;;;5.23;68.75;101528.13;5027710;28;20037;-64
2021/04/13 11:36:40;;;;;;;8.25;4.15;;;;;;;5.23;69.46;101537.50;5044628;28;20050;-64
2021/04/13 11:39:27;;;;;;;6.97;3.53;;;;;;;5.24;69.43;101539.28;5026795;28;20535;-63
2021/04/13 11:42:17;;;;;;;8.80;3.95;;;;;;;5.26;68.97;101535.13;5027184;28;20537;-64
2021/04/13 11:45:01;;;;;;;10.52;3.58;;;;;;;5.30;68.74;101537.97;5027329;28;20038;-64
2021/04/13 11:47:33;;;;;;;5.25;3.70;;;;;;;5.32;68.74;101531.25;5009235;28;20036;-63
2021/04/13 11:50:08;;;;;;;12.85;4.50;;;;;;;5.33;69.26;101533.03;5027799;28;20098;-64
2021/04/13 11:53:13;;;;;;;7.80;3.65;;;;;;;5.33;68.58;101530.47;4993452;28;20038;-64
2021/04/13 11:55:39;;;;;;;8.07;3.92;;;;;;;5.34;68.86;101534.81;4993090;28;20515;-64
2021/04/13 11:58:04;;;;;;;7.82;3.72;;;;;;;5.34;69.07;101526.22;5009629;28;20116;-64
2021/04/13 12:00:31;;;;;;;15.48;4.63;;;;;;;5.33;68.98;101534.72;5027067;28;20511;-64
2021/04/13 12:03:11;;;;;;;5.40;3.55;;;;;;;5.30;68.68;101527.69;5026745;28;20509;-64
2021/04/13 12:05:41;;;;;;;7.97;3.67;;;;;;;5.30;69.54;101525.13;5026458;28;20052;-64
2021/04/13 12:08:20;;;;;;;8.38;3.90;;;;;;;5.30;69.00;101529.38;4993108;28;20056;-64
2021/04/13 12:10:54;;;;;;;8.57;3.38;;;;;;;5.29;68.55;101525.94;5009107;28;20454;-64
2021/04/13 12:13:38;;;;;;;4.82;3.47;;;;;;;5.29;69.08;101523.38;4992629;28;20485;-64
2021/04/13 12:16:05;;;;;;;9.00;3.65;;;;;;;5.31;68.69;101518.31;5008815;28;20200;-63
2021/04/13 12:18:39;;;;;;;10.60;4.53;;;;;;;5.32;68.51;101520.97;4992531;28;20061;-62
2021/04/13 12:21:24;;;;;;;5.85;3.50;;;;;;;5.32;68.85;101515.81;4992564;28;20044;-63
2021/04/13 12:23:59;;;;;;;8.77;3.45;;;;;;;5.33;69.54;101511.59;5008762;28;20417;-63
2021/04/13 12:26:43;;;;;;;8.15;3.30;;;;;;;5.32;69.20;101514.94;4992668;28;20044;-64
2021/04/13 12:29:29;;;;;;;8.98;3.88;;;;;;;5.34;68.35;101515.94;4992624;28;20503;-64